createdAt,value
2019-03-18T00:03:19.233Z,96.80
2019-03-18T00:08:22.885Z,96.60
2019-03-18T00:13:26.547Z,97.10
2019-03-18T00:18:30.215Z,96.50
2019-03-18T00:23:33.867Z,96.70
2019-03-18T00:28:37.529Z,96.70
2019-03-18T00:33:41.200Z,96.60
2019-03-18T00:38:45.367Z,96.90
2019-03-18T00:43:49.021Z,96.90
2019-03-18T00:48:52.700Z,96.30
2019-03-18T00:53:56.646Z,96.20
2019-03-18T00:59:00.445Z,95.60
2019-03-18T01:04:04.266Z,95.50
2019-03-18T01:09:08.142Z,95.00
2019-03-18T01:14:11.800Z,95.30
2019-03-18T01:19:15.497Z,94.90
2019-03-18T01:24:19.473Z,95.30
2019-03-18T01:29:23.505Z,95.20
2019-03-18T01:34:27.402Z,95.60
2019-03-18T01:39:31.025Z,95.00
2019-03-18T01:44:34.696Z,95.00
2019-03-18T01:49:38.577Z,95.70
2019-03-18T01:54:42.229Z,96.00
2019-03-18T01:59:45.883Z,96.60
2019-03-18T02:04:49.796Z,96.80
2019-03-18T02:09:53.442Z,96.80
2019-03-18T02:14:57.106Z,96.90
2019-03-18T02:20:00.762Z,97.10
2019-03-18T02:25:04.993Z,96.70
2019-03-18T02:30:08.788Z,96.00
2019-03-18T02:35:12.509Z,96.30
2019-03-18T02:40:16.377Z,95.50
2019-03-18T02:45:20.096Z,95.80
2019-03-18T02:50:23.767Z,95.50
2019-03-18T02:55:27.440Z,95.50
2019-03-18T03:00:31.092Z,95.80
2019-03-18T03:05:34.740Z,95.10
2019-03-18T03:10:38.722Z,95.20
2019-03-18T03:15:42.643Z,95.20
2019-03-18T03:20:46.720Z,94.90
2019-03-18T03:25:50.741Z,94.90
2019-03-18T03:30:54.404Z,94.70
2019-03-18T03:35:58.555Z,94.10
2019-03-18T03:41:02.754Z,93.60
2019-03-18T03:46:06.407Z,94.00
2019-03-18T03:51:10.429Z,93.70
2019-03-18T03:56:14.372Z,93.40
2019-03-18T04:01:18.002Z,93.50
2019-03-18T04:06:22.039Z,93.10
2019-03-18T04:11:26.259Z,93.10
2019-03-18T04:16:30.256Z,93.10
2019-03-18T04:21:34.209Z,94.40
2019-03-18T04:26:37.863Z,93.50
2019-03-18T04:31:41.534Z,94.10
2019-03-18T04:36:45.432Z,93.90
2019-03-18T04:41:49.085Z,93.70
2019-03-18T04:46:52.970Z,94.30
2019-03-18T04:51:56.705Z,94.40
2019-03-18T04:57:00.383Z,94.00
2019-03-18T05:02:04.065Z,93.80
2019-03-18T05:07:07.719Z,93.80
2019-03-18T05:12:11.657Z,94.00
2019-03-18T05:17:26.137Z,94.10
2019-03-18T05:22:20.932Z,94.10
2019-03-18T05:27:24.866Z,94.70
2019-03-18T05:32:28.530Z,94.80
2019-03-18T05:37:32.178Z,94.10
2019-03-18T05:42:36.120Z,94.30
2019-03-18T05:47:40.133Z,94.30
2019-03-18T05:52:44.008Z,93.50
2019-03-18T05:57:47.672Z,95.90
2019-03-18T06:02:51.366Z,95.50
2019-03-18T06:07:55.021Z,93.60
2019-03-18T06:12:58.830Z,93.60
2019-03-18T06:18:02.779Z,93.70
2019-03-18T06:23:06.436Z,93.90
2019-03-18T06:28:10.165Z,92.80
2019-03-18T06:33:13.842Z,92.40
2019-03-18T06:38:17.527Z,92.10
2019-03-18T06:43:21.177Z,92.20
2019-03-18T06:48:25.125Z,92.30
2019-03-18T06:53:28.780Z,93.40
2019-03-18T06:58:33.408Z,91.40
2019-03-18T07:03:37.049Z,92.10
2019-03-18T07:08:40.682Z,91.80
2019-03-18T07:13:44.598Z,91.70
2019-03-18T07:18:48.517Z,91.10
2019-03-18T07:23:52.199Z,90.90
2019-03-18T07:28:55.945Z,91.70
2019-03-18T07:33:59.959Z,91.20
2019-03-18T07:39:04.817Z,90.70
2019-03-18T07:44:08.765Z,90.80
2019-03-18T07:49:14.326Z,90.40
2019-03-18T07:54:18.306Z,90.60
2019-03-18T07:59:22.057Z,90.60
2019-03-18T08:04:36.862Z,89.50
2019-03-18T08:09:31.467Z,90.00
2019-03-18T08:14:35.491Z,81.80
2019-03-18T08:19:39.593Z,70.20
2019-03-18T08:24:43.620Z,64.90
2019-03-18T08:29:47.369Z,62.00
2019-03-18T08:34:51.068Z,57.00
2019-03-18T08:39:54.810Z,56.20
2019-03-18T08:44:58.534Z,51.10
2019-03-18T08:50:02.541Z,51.60
2019-03-18T08:55:06.410Z,50.30
2019-03-18T09:00:10.813Z,48.70
2019-03-18T09:05:14.527Z,47.80
2019-03-18T09:10:18.449Z,46.00
2019-03-18T09:15:22.313Z,46.60
2019-03-18T09:20:26.037Z,40.60
2019-03-18T09:25:29.744Z,42.10
2019-03-18T09:30:33.457Z,47.90
2019-03-18T09:35:37.158Z,57.60
2019-03-18T09:40:40.948Z,64.60
2019-03-18T09:45:44.670Z,69.30
2019-03-18T09:50:48.367Z,74.90
2019-03-18T09:55:55.166Z,77.50
2019-03-18T10:00:58.977Z,76.60
2019-03-18T10:06:02.706Z,77.10
2019-03-18T10:11:06.442Z,77.70
2019-03-18T10:16:10.257Z,78.20
2019-03-18T10:21:13.978Z,79.00
2019-03-18T10:26:17.701Z,79.20
2019-03-18T10:31:21.423Z,76.50
2019-03-18T10:36:25.433Z,77.50
2019-03-18T10:41:29.177Z,78.70
2019-03-18T10:46:32.897Z,81.00
2019-03-18T10:51:36.610Z,77.30
2019-03-18T10:56:41.338Z,75.30
2019-03-18T11:01:45.286Z,70.30
2019-03-18T11:06:48.966Z,68.00
2019-03-18T11:11:52.933Z,70.70
2019-03-18T11:16:56.650Z,70.30
2019-03-18T11:22:00.394Z,75.90
2019-03-18T11:27:04.119Z,78.00
2019-03-18T11:32:07.810Z,77.10
2019-03-18T11:37:11.577Z,77.20
2019-03-18T11:42:15.265Z,73.70
2019-03-18T11:47:18.993Z,71.40
2019-03-18T11:52:23.067Z,61.80
2019-03-18T11:57:26.774Z,60.30
2019-03-18T12:02:30.488Z,71.00
2019-03-18T12:07:34.235Z,69.60
2019-03-18T12:12:37.930Z,61.80
2019-03-18T12:17:41.632Z,67.40
2019-03-18T12:22:45.374Z,66.90
2019-03-18T12:27:49.097Z,66.00
2019-03-18T12:32:53.022Z,69.30
2019-03-18T12:37:56.797Z,76.70
2019-03-18T12:43:00.653Z,77.60
2019-03-18T12:48:04.745Z,79.40
2019-03-18T12:53:09.089Z,77.40
2019-03-18T12:58:12.803Z,58.10
2019-03-18T13:03:29.488Z,46.60
2019-03-18T13:08:33.242Z,45.80
2019-03-18T13:13:37.259Z,53.90
2019-03-18T13:18:41.062Z,53.80
2019-03-18T13:23:44.786Z,51.50
2019-03-18T13:28:48.800Z,49.30
2019-03-18T13:33:52.460Z,50.80
2019-03-18T13:38:56.457Z,59.50
2019-03-18T13:44:00.125Z,85.80
2019-03-18T13:49:03.783Z,92.00
2019-03-18T13:54:07.430Z,95.50
2019-03-18T13:59:11.418Z,95.70
2019-03-18T14:04:15.109Z,70.80
2019-03-18T14:09:18.876Z,51.10
2019-03-18T14:14:22.534Z,50.30
2019-03-18T14:19:26.205Z,59.80
2019-03-18T14:24:29.876Z,71.10
2019-03-18T14:29:33.534Z,77.70
2019-03-18T14:34:37.234Z,65.30
2019-03-18T14:39:41.162Z,70.30
2019-03-18T14:44:44.891Z,78.90
2019-03-18T14:49:48.593Z,63.80
2019-03-18T14:54:52.529Z,60.20
2019-03-18T14:59:56.460Z,70.40
2019-03-18T15:05:00.384Z,66.50
2019-03-18T15:10:04.635Z,65.30
2019-03-18T15:15:10.146Z,62.50
2019-03-18T15:20:14.209Z,60.20
2019-03-18T15:25:19.786Z,56.00
2019-03-18T15:30:23.818Z,56.30
2019-03-18T15:35:27.546Z,60.00
2019-03-18T15:40:31.457Z,64.20
2019-03-18T15:45:35.534Z,71.50
2019-03-18T15:50:39.649Z,77.40
2019-03-18T15:55:43.361Z,76.50
2019-03-18T16:00:47.035Z,69.00
2019-03-18T16:05:50.762Z,69.80
2019-03-18T16:10:54.490Z,69.70
2019-03-18T16:15:58.434Z,69.40
2019-03-18T16:21:02.085Z,69.10
2019-03-18T16:26:05.805Z,71.40
2019-03-18T16:31:09.458Z,79.10
2019-03-18T16:36:13.134Z,84.70
2019-03-18T16:41:17.066Z,84.50
2019-03-18T16:46:20.742Z,86.30
2019-03-18T16:51:24.773Z,88.30
2019-03-18T16:56:28.445Z,90.20
2019-03-18T17:01:32.093Z,90.00
2019-03-18T17:06:37.952Z,89.20
2019-03-18T17:11:41.441Z,88.00
2019-03-18T17:16:45.122Z,84.70
2019-03-18T17:21:48.785Z,85.60
2019-03-18T17:26:52.459Z,85.60
2019-03-18T17:31:56.141Z,85.60
2019-03-18T17:36:59.785Z,86.90
2019-03-18T17:42:03.463Z,87.20
2019-03-18T17:47:07.766Z,87.10
2019-03-18T17:52:11.556Z,88.90
2019-03-18T17:57:15.253Z,89.10
2019-03-18T18:02:18.919Z,88.70
2019-03-18T18:07:22.594Z,89.50
2019-03-18T18:12:26.679Z,90.10
2019-03-18T18:17:30.402Z,90.50
2019-03-18T18:22:34.049Z,90.40
2019-03-18T18:27:37.722Z,90.70
2019-03-18T18:32:42.306Z,91.20
2019-03-18T18:37:45.996Z,91.40
2019-03-18T18:42:49.697Z,92.00
2019-03-18T18:47:53.725Z,92.00
2019-03-18T18:52:57.519Z,92.10
2019-03-18T18:58:01.289Z,92.30
2019-03-18T19:03:05.149Z,92.80
2019-03-18T19:08:09.119Z,93.10
2019-03-18T19:13:12.812Z,93.30
2019-03-18T19:18:16.505Z,93.30
2019-03-18T19:23:20.267Z,93.30
2019-03-18T19:28:24.533Z,93.60
2019-03-18T19:33:28.264Z,93.00
2019-03-18T19:38:32.312Z,92.80
2019-03-18T19:43:36.400Z,92.90
2019-03-18T19:48:40.129Z,92.90
2019-03-18T19:53:49.037Z,92.80
2019-03-18T19:58:49.195Z,92.60
2019-03-18T20:03:52.889Z,92.50
2019-03-18T20:08:56.619Z,92.90
2019-03-18T20:14:00.276Z,93.00
2019-03-18T20:19:04.143Z,93.50
2019-03-18T20:24:07.908Z,93.90
2019-03-18T20:29:11.711Z,93.30
2019-03-18T20:34:15.448Z,93.60
2019-03-18T20:39:19.165Z,93.60
2019-03-18T20:44:23.086Z,94.10
2019-03-18T20:49:26.894Z,94.70
2019-03-18T20:54:30.644Z,95.30
2019-03-18T20:59:34.384Z,94.60
2019-03-18T21:04:38.368Z,94.90
2019-03-18T21:09:42.136Z,94.70
2019-03-18T21:14:45.920Z,94.60
2019-03-18T21:19:49.673Z,94.70
2019-03-18T21:24:53.377Z,94.40
2019-03-18T21:29:57.746Z,94.40
2019-03-18T21:35:01.662Z,95.00
2019-03-18T21:40:05.740Z,95.30
2019-03-18T21:45:12.103Z,94.70
2019-03-18T21:50:15.890Z,93.20
2019-03-18T21:55:19.717Z,92.90
2019-03-18T22:00:23.801Z,93.30
2019-03-18T22:05:27.569Z,93.70
2019-03-18T22:10:31.297Z,93.00
2019-03-18T22:15:35.068Z,92.80
2019-03-18T22:20:38.841Z,92.70
2019-03-18T22:25:42.643Z,92.80
2019-03-18T22:30:47.071Z,92.90
2019-03-18T22:35:50.811Z,92.70
2019-03-18T22:40:54.790Z,92.80
2019-03-18T22:45:58.479Z,94.00
2019-03-18T22:51:02.188Z,93.80
2019-03-18T22:56:06.198Z,94.10
2019-03-18T23:01:12.399Z,94.00
2019-03-18T23:06:16.354Z,94.10
2019-03-18T23:11:20.600Z,93.70
2019-03-18T23:16:24.495Z,93.90
2019-03-18T23:21:28.553Z,94.00
2019-03-18T23:26:32.581Z,94.30
2019-03-18T23:31:36.585Z,93.90
2019-03-18T23:36:40.350Z,94.70
2019-03-18T23:41:44.266Z,94.70
2019-03-18T23:46:48.168Z,94.30
2019-03-18T23:51:52.216Z,94.60
2019-03-18T23:56:56.241Z,94.70
